createdAt,value
2018-10-16T00:00:14.945Z,17.10
2018-10-16T00:04:19.812Z,17.20
2018-10-16T00:08:24.591Z,17.30
2018-10-16T00:12:29.382Z,17.40
2018-10-16T00:16:34.176Z,17.10
2018-10-16T00:20:39.856Z,17.10
2018-10-16T00:24:44.527Z,17.20
2018-10-16T00:28:49.367Z,17.30
2018-10-16T00:32:55.392Z,17.00
2018-10-16T00:37:00.086Z,16.60
2018-10-16T00:41:05.148Z,16.50
2018-10-16T00:45:10.987Z,16.40
2018-10-16T00:49:15.720Z,16.50
2018-10-16T00:53:20.634Z,16.90
2018-10-16T00:57:26.176Z,17.00
2018-10-16T01:01:32.887Z,16.40
2018-10-16T01:05:37.561Z,16.20
2018-10-16T01:09:42.339Z,16.30
2018-10-16T01:13:47.003Z,16.30
2018-10-16T01:17:52.007Z,16.70
2018-10-16T01:21:56.832Z,16.70
2018-10-16T01:26:01.491Z,16.70
2018-10-16T01:30:06.294Z,16.80
2018-10-16T01:34:11.130Z,16.80
2018-10-16T01:38:15.923Z,16.90
2018-10-16T01:42:23.214Z,16.20
2018-10-16T01:46:27.974Z,16.00
2018-10-16T01:50:32.946Z,15.90
2018-10-16T01:54:37.639Z,16.00
2018-10-16T01:58:42.374Z,16.50
2018-10-16T02:02:47.147Z,16.60
2018-10-16T02:06:52.426Z,16.70
2018-10-16T02:10:57.448Z,16.80
2018-10-16T02:15:02.137Z,16.80
2018-10-16T02:19:07.340Z,16.90
2018-10-16T02:23:12.214Z,16.90
2018-10-16T02:27:16.949Z,16.90
2018-10-16T02:31:22.002Z,16.90
2018-10-16T02:35:27.150Z,16.90
2018-10-16T02:39:31.847Z,17.00
2018-10-16T02:43:36.509Z,17.00
2018-10-16T02:47:41.202Z,17.00
2018-10-16T02:51:45.868Z,16.90
2018-10-16T02:55:52.180Z,16.90
2018-10-16T02:59:57.334Z,16.80
2018-10-16T03:04:02.067Z,16.90
2018-10-16T03:08:06.905Z,16.80
2018-10-16T03:12:11.727Z,16.80
2018-10-16T03:16:16.740Z,16.70
2018-10-16T03:20:21.583Z,16.70
2018-10-16T03:24:26.329Z,16.70
2018-10-16T03:28:31.235Z,16.70
2018-10-16T03:32:35.951Z,16.80
2018-10-16T03:36:40.946Z,16.70
2018-10-16T03:40:45.811Z,16.80
2018-10-16T03:44:51.673Z,16.80
2018-10-16T03:48:56.573Z,16.60
2018-10-16T03:53:01.487Z,16.50
2018-10-16T03:57:06.285Z,16.60
2018-10-16T04:01:11.079Z,16.30
2018-10-16T04:05:15.738Z,16.20
2018-10-16T04:09:21.638Z,16.40
2018-10-16T04:13:26.422Z,16.60
2018-10-16T04:17:31.166Z,16.20
2018-10-16T04:21:42.095Z,16.30
2018-10-16T04:25:46.822Z,16.40
2018-10-16T04:29:53.077Z,16.30
2018-10-16T04:33:58.181Z,16.00
2018-10-16T04:38:02.859Z,15.90
2018-10-16T04:42:07.532Z,16.00
2018-10-16T04:46:12.276Z,16.20
2018-10-16T04:50:16.980Z,16.00
2018-10-16T04:54:21.924Z,16.10
2018-10-16T04:58:26.875Z,16.20
2018-10-16T05:02:31.611Z,16.00
2018-10-16T05:06:36.400Z,16.20
2018-10-16T05:10:41.240Z,16.20
2018-10-16T05:14:45.938Z,16.20
2018-10-16T05:18:52.137Z,16.20
2018-10-16T05:22:58.141Z,16.30
2018-10-16T05:27:02.966Z,16.20
2018-10-16T05:31:07.779Z,16.20
2018-10-16T05:35:12.626Z,16.20
2018-10-16T05:39:17.363Z,16.20
2018-10-16T05:43:23.138Z,16.10
2018-10-16T05:47:27.928Z,16.20
2018-10-16T05:51:32.739Z,16.20
2018-10-16T05:55:37.422Z,16.20
2018-10-16T05:59:42.109Z,16.30
2018-10-16T06:03:46.747Z,16.40
2018-10-16T06:07:53.780Z,16.40
2018-10-16T06:11:58.906Z,16.40
2018-10-16T06:16:03.625Z,16.40
2018-10-16T06:20:10.820Z,16.40
2018-10-16T06:24:15.582Z,16.30
2018-10-16T06:28:22.251Z,16.30
2018-10-16T06:32:27.027Z,16.30
2018-10-16T06:36:31.928Z,16.30
2018-10-16T06:40:37.345Z,16.40
2018-10-16T06:44:42.158Z,16.30
2018-10-16T06:48:47.185Z,16.40
2018-10-16T06:52:52.048Z,16.30
2018-10-16T06:56:56.977Z,16.40
2018-10-16T07:01:01.704Z,16.40
2018-10-16T07:05:07.433Z,16.50
2018-10-16T07:09:12.276Z,16.50
2018-10-16T07:13:17.133Z,16.60
2018-10-16T07:17:22.191Z,16.70
2018-10-16T07:21:27.273Z,16.70
2018-10-16T07:25:32.095Z,16.80
2018-10-16T07:29:36.961Z,16.90
2018-10-16T07:33:41.630Z,17.30
2018-10-16T07:37:46.342Z,17.60
2018-10-16T07:41:52.436Z,17.90
2018-10-16T07:45:57.268Z,18.30
2018-10-16T07:50:02.083Z,18.60
2018-10-16T07:54:07.125Z,18.90
2018-10-16T07:58:11.989Z,19.10
2018-10-16T08:02:16.892Z,19.10
2018-10-16T08:06:21.874Z,19.20
2018-10-16T08:10:26.677Z,19.30
2018-10-16T08:14:32.571Z,19.40
2018-10-16T08:18:37.595Z,19.80
2018-10-16T08:22:42.267Z,20.00
2018-10-16T08:26:46.924Z,20.40
2018-10-16T08:30:51.778Z,20.90
2018-10-16T08:34:57.274Z,21.20
2018-10-16T08:39:08.532Z,21.80
2018-10-16T08:43:29.962Z,22.30
2018-10-16T08:47:46.311Z,22.80
2018-10-16T08:51:53.442Z,23.00
2018-10-16T08:55:58.756Z,23.00
2018-10-16T09:00:03.749Z,23.20
2018-10-16T09:04:08.739Z,23.50
2018-10-16T09:08:13.379Z,23.20
2018-10-16T09:12:18.085Z,22.90
2018-10-16T09:16:23.850Z,22.10
2018-10-16T09:20:28.572Z,21.90
2018-10-16T09:24:33.523Z,21.80
2018-10-16T09:28:38.227Z,21.90
2018-10-16T09:32:42.886Z,22.80
2018-10-16T09:36:47.650Z,24.00
2018-10-16T09:40:52.419Z,24.40
2018-10-16T09:44:57.138Z,24.80
2018-10-16T09:49:01.820Z,25.50
2018-10-16T09:53:07.053Z,26.20
2018-10-16T09:57:11.782Z,27.40
2018-10-16T10:01:22.275Z,27.50
2018-10-16T10:05:27.456Z,27.80
2018-10-16T10:09:32.170Z,28.00
2018-10-16T10:13:36.990Z,26.80
2018-10-16T10:17:41.751Z,25.40
2018-10-16T10:21:46.437Z,24.50
2018-10-16T10:25:51.617Z,24.30
2018-10-16T10:29:56.793Z,24.10
2018-10-16T10:34:01.519Z,23.60
2018-10-16T10:38:06.184Z,23.50
2018-10-16T10:42:10.897Z,23.30
2018-10-16T10:46:15.735Z,23.20
2018-10-16T10:50:22.213Z,23.20
2018-10-16T10:54:26.934Z,23.20
2018-10-16T10:58:31.760Z,23.30
2018-10-16T11:02:36.778Z,23.20
2018-10-16T11:06:41.458Z,23.20
2018-10-16T11:10:46.131Z,23.20
2018-10-16T11:14:51.011Z,23.00
2018-10-16T11:18:57.147Z,22.90
2018-10-16T11:23:01.799Z,22.80
2018-10-16T11:27:06.485Z,22.80
2018-10-16T11:31:11.454Z,22.90
2018-10-16T11:35:16.222Z,22.90
2018-10-16T11:39:21.622Z,22.90
2018-10-16T11:43:26.486Z,22.70
2018-10-16T11:47:31.357Z,22.80
2018-10-16T11:51:36.540Z,22.70
2018-10-16T11:55:41.222Z,22.80
2018-10-16T11:59:46.266Z,22.70
2018-10-16T12:03:51.229Z,22.80
2018-10-16T12:07:56.122Z,22.80
2018-10-16T12:12:00.933Z,22.80
2018-10-16T12:16:05.572Z,22.70
2018-10-16T12:20:17.903Z,22.70
2018-10-16T12:24:23.026Z,22.80
2018-10-16T12:28:28.223Z,22.90
2018-10-16T12:32:33.067Z,22.80
2018-10-16T12:36:37.759Z,22.80
2018-10-16T12:40:42.488Z,22.80
2018-10-16T12:44:47.184Z,22.80
2018-10-16T12:48:53.123Z,22.80
2018-10-16T12:52:58.042Z,22.80
2018-10-16T12:57:02.727Z,22.90
2018-10-16T13:01:07.363Z,22.80
2018-10-16T13:05:12.119Z,22.80
2018-10-16T13:09:16.798Z,22.90
2018-10-16T13:13:21.607Z,23.00
2018-10-16T13:17:26.734Z,23.00
2018-10-16T13:21:31.439Z,23.00
2018-10-16T13:25:36.230Z,23.00
2018-10-16T13:29:41.236Z,22.90
2018-10-16T13:33:45.891Z,22.90
2018-10-16T13:37:51.268Z,22.90
2018-10-16T13:41:56.049Z,22.90
2018-10-16T13:46:01.263Z,23.00
2018-10-16T13:50:09.754Z,22.90
2018-10-16T13:54:14.397Z,22.90
2018-10-16T13:58:20.398Z,22.90
2018-10-16T14:02:25.623Z,22.90
2018-10-16T14:06:30.272Z,22.90
2018-10-16T14:10:35.235Z,22.90
2018-10-16T14:14:39.903Z,22.90
2018-10-16T14:18:44.595Z,22.90
2018-10-16T14:22:49.364Z,22.90
2018-10-16T14:26:54.590Z,22.90
2018-10-16T14:31:00.274Z,22.90
2018-10-16T14:35:05.896Z,22.90
2018-10-16T14:39:11.909Z,22.90
2018-10-16T14:43:16.626Z,22.90
2018-10-16T14:47:21.361Z,22.90
2018-10-16T14:51:26.373Z,22.90
2018-10-16T14:55:31.250Z,22.90
2018-10-16T14:59:36.054Z,22.80
2018-10-16T15:03:40.749Z,22.80
2018-10-16T15:07:45.472Z,22.70
2018-10-16T15:11:50.212Z,22.80
2018-10-16T15:15:55.114Z,22.80
2018-10-16T15:20:00.270Z,22.80
2018-10-16T15:24:05.240Z,22.80
2018-10-16T15:28:11.487Z,22.70
2018-10-16T15:32:16.411Z,22.80
2018-10-16T15:36:21.131Z,22.80
2018-10-16T15:40:25.712Z,22.70
2018-10-16T15:44:30.445Z,22.60
2018-10-16T15:48:35.136Z,22.60
2018-10-16T15:52:40.280Z,22.60
2018-10-16T15:56:45.070Z,22.60
2018-10-16T16:00:49.788Z,22.60
2018-10-16T16:04:54.448Z,22.50
2018-10-16T16:08:59.085Z,22.50
2018-10-16T16:13:08.372Z,22.40
2018-10-16T16:17:13.587Z,22.40
2018-10-16T16:21:18.308Z,22.30
2018-10-16T16:25:22.961Z,22.20
2018-10-16T16:29:27.656Z,22.10
2018-10-16T16:33:32.355Z,22.10
2018-10-16T16:37:37.938Z,22.00
2018-10-16T16:41:43.198Z,22.00
2018-10-16T16:45:47.859Z,21.90
2018-10-16T16:49:53.595Z,21.90
2018-10-16T16:53:58.424Z,21.80
2018-10-16T16:58:08.291Z,21.70
2018-10-16T17:02:13.814Z,21.60
2018-10-16T17:06:18.561Z,21.60
2018-10-16T17:10:23.280Z,21.40
2018-10-16T17:14:28.380Z,21.40
2018-10-16T17:18:33.075Z,21.40
2018-10-16T17:22:38.024Z,21.30
2018-10-16T17:26:42.722Z,21.30
2018-10-16T17:30:47.412Z,21.20
2018-10-16T17:34:53.731Z,21.20
2018-10-16T17:38:58.432Z,21.20
2018-10-16T17:43:04.284Z,21.10
2018-10-16T17:47:09.293Z,21.10
2018-10-16T17:51:14.017Z,21.10
2018-10-16T17:55:18.647Z,21.00
2018-10-16T17:59:23.312Z,21.00
2018-10-16T18:03:28.014Z,21.00
2018-10-16T18:07:33.292Z,20.80
2018-10-16T18:11:38.272Z,20.80
2018-10-16T18:15:43.084Z,20.80
2018-10-16T18:19:47.792Z,20.70
2018-10-16T18:23:52.743Z,20.70
2018-10-16T18:27:57.486Z,20.60
2018-10-16T18:32:03.020Z,20.30
2018-10-16T18:36:08.012Z,20.40
2018-10-16T18:40:13.673Z,20.40
2018-10-16T18:44:18.476Z,20.40
2018-10-16T18:48:23.448Z,20.20
2018-10-16T18:52:28.271Z,20.10
2018-10-16T18:56:34.464Z,19.90
2018-10-16T19:00:39.654Z,19.80
2018-10-16T19:04:45.498Z,19.70
2018-10-16T19:08:50.884Z,19.90
2018-10-16T19:12:55.628Z,19.90
2018-10-16T19:17:01.220Z,19.90
2018-10-16T19:21:07.177Z,19.80
2018-10-16T19:25:13.329Z,19.90
2018-10-16T19:29:18.505Z,19.90
2018-10-16T19:33:23.375Z,19.90
2018-10-16T19:37:28.154Z,19.90
2018-10-16T19:41:34.174Z,19.90
2018-10-16T19:45:39.272Z,19.90
2018-10-16T19:49:44.050Z,19.90
2018-10-16T19:53:49.176Z,19.90
2018-10-16T19:57:53.938Z,19.90
2018-10-16T20:01:58.687Z,19.90
2018-10-16T20:06:03.350Z,19.80
2018-10-16T20:10:10.546Z,19.80
2018-10-16T20:14:15.316Z,19.80
2018-10-16T20:18:20.207Z,19.80
2018-10-16T20:22:24.904Z,19.80
2018-10-16T20:26:29.577Z,19.80
2018-10-16T20:30:36.186Z,19.80
2018-10-16T20:34:41.697Z,19.70
2018-10-16T20:38:46.468Z,19.70
2018-10-16T20:42:51.320Z,19.70
2018-10-16T20:46:55.974Z,19.70
2018-10-16T20:51:00.699Z,19.60
2018-10-16T20:55:06.335Z,19.60
2018-10-16T20:59:12.724Z,19.60
2018-10-16T21:03:17.484Z,19.50
2018-10-16T21:07:22.353Z,19.50
2018-10-16T21:11:27.183Z,19.50
2018-10-16T21:15:34.073Z,19.50
2018-10-16T21:19:39.008Z,19.50
2018-10-16T21:23:43.689Z,19.60
2018-10-16T21:27:48.812Z,19.60
2018-10-16T21:31:59.312Z,19.50
2018-10-16T21:36:05.477Z,19.60
2018-10-16T21:40:11.186Z,19.60
2018-10-16T21:44:23.761Z,19.60
2018-10-16T21:48:29.575Z,19.60
2018-10-16T21:52:38.119Z,19.50
2018-10-16T21:56:43.104Z,19.50
2018-10-16T22:00:53.417Z,19.50
2018-10-16T22:04:58.159Z,19.60
2018-10-16T22:09:05.058Z,19.60
2018-10-16T22:13:11.801Z,19.60
2018-10-16T22:17:16.699Z,19.60
2018-10-16T22:21:22.063Z,19.60
2018-10-16T22:25:26.807Z,19.60
2018-10-16T22:29:31.952Z,19.60
2018-10-16T22:33:37.032Z,19.60
2018-10-16T22:37:42.026Z,19.50
2018-10-16T22:41:48.677Z,19.50
2018-10-16T22:45:53.768Z,19.50
2018-10-16T22:49:59.731Z,19.50
2018-10-16T22:54:05.196Z,19.40
2018-10-16T22:58:12.054Z,19.40
2018-10-16T23:02:16.702Z,19.40
2018-10-16T23:06:21.377Z,19.40
2018-10-16T23:10:26.212Z,19.30
2018-10-16T23:14:30.986Z,19.20
2018-10-16T23:18:35.854Z,19.00
2018-10-16T23:22:40.706Z,18.80
2018-10-16T23:26:45.386Z,18.80
2018-10-16T23:30:50.102Z,18.70
2018-10-16T23:34:54.824Z,18.70
2018-10-16T23:39:00.076Z,18.70
2018-10-16T23:43:05.116Z,18.60
2018-10-16T23:47:10.221Z,18.70
2018-10-16T23:51:15.254Z,18.60
2018-10-16T23:55:20.092Z,18.60
2018-10-16T23:59:24.877Z,18.50
